Skip Navigation LinksHome page > Weather > Current weather Skip Navigation Links

Current Weather

Raleigh-Durham Intl, Raleigh, N.C.

For information only: do not use for flight planning or navigation.
Latest weather
Observation time Friday, August 14, 2020 12:42 PM EDT
Local time Friday, August 14, 2020 12:49 PM EDT
Flight conditions Visual Meteorological Conditions
Winds
Wind direction North (10°)
Wind speed 5 mph
Visibility 10 mi.
Sky condition
Ceiling 8,000 ft. broken clouds
Cloud layer scattered clouds 2,400 ft.
Cloud layer broken clouds 8,000 ft.
Cloud layer broken clouds 10,000 ft.
Temperature 83°F
Dewpoint 72°F
Altimeter 29.99 in.Hg
Derived measurements
Relative humidity 70%
Heat index 88°F
Density altitude 2246 ft.
Remarks
Special weather observation.
Automated weather observing station with precipitation discriminator.
METAR SPECI KRDU 141642Z 01004KT 10SM SCT024 BKN080 BKN100 28/22 A2999 RMK AO2 T02830222

Settings

Location code

InnerDrive.Weather 4.0.6770.0 Release CLR 4.0.30319.42000
Copyright ©2018 Inner Drive Technology. All rights reserved. Portions Copyright ©1986-2018 David Braverman.

Find weather

Site navigation


Skip Navigation Links

Place info

Page info

PayPal - The safer, easier way to pay online!

Return home.

Copyright ©2020 Inner Drive Technology. Purveyors of fine, hand-crafted computer software. Page printed 2020-08-14T16:49:09 UTC.